createdAt,value
2022-10-19T00:01:29.652Z,5.18
2022-10-19T00:03:33.918Z,5.14
2022-10-19T00:05:32.164Z,5.10
2022-10-19T00:07:30.506Z,5.04
2022-10-19T00:09:29.226Z,4.98
2022-10-19T00:11:30.903Z,4.92
2022-10-19T00:13:29.017Z,4.87
2022-10-19T00:15:28.754Z,4.85
2022-10-19T00:17:27.004Z,4.92
2022-10-19T00:19:27.408Z,4.93
2022-10-19T00:21:26.124Z,4.93
2022-10-19T00:23:24.178Z,4.89
2022-10-19T00:25:22.542Z,4.95
2022-10-19T00:27:20.675Z,4.95
2022-10-19T00:29:19.475Z,4.99
2022-10-19T00:31:19.306Z,4.94
2022-10-19T00:33:22.539Z,4.92
2022-10-19T00:35:20.877Z,4.91
2022-10-19T00:37:19.280Z,4.79
2022-10-19T00:39:19.007Z,4.75
2022-10-19T00:41:18.671Z,4.74
2022-10-19T00:43:18.290Z,4.68
2022-10-19T00:45:18.388Z,4.61
2022-10-19T00:47:20.291Z,4.60
2022-10-19T00:49:23.892Z,4.59
2022-10-19T00:51:23.639Z,4.55
2022-10-19T00:53:22.691Z,4.67
2022-10-19T00:55:21.013Z,4.70
2022-10-19T00:57:18.858Z,4.69
2022-10-19T00:59:21.453Z,4.68
2022-10-19T01:01:23.776Z,4.61
2022-10-19T01:03:23.537Z,4.62
2022-10-19T01:05:22.109Z,4.49
2022-10-19T01:07:21.199Z,4.44
2022-10-19T01:09:19.577Z,4.47
2022-10-19T01:11:32.184Z,4.45
2022-10-19T01:13:43.257Z,4.43
2022-10-19T01:15:49.136Z,4.34
2022-10-19T01:17:59.105Z,4.41
2022-10-19T01:20:32.921Z,4.36
2022-10-19T01:22:49.466Z,4.28
2022-10-19T01:24:58.823Z,4.40
2022-10-19T01:27:20.353Z,4.36
2022-10-19T01:29:26.371Z,4.42
2022-10-19T01:31:33.078Z,4.48
2022-10-19T01:33:41.342Z,4.42
2022-10-19T01:35:46.874Z,4.28
2022-10-19T01:37:49.606Z,4.22
2022-10-19T01:39:54.899Z,4.14
2022-10-19T01:42:02.310Z,4.10
2022-10-19T01:44:09.337Z,4.09
2022-10-19T01:46:12.857Z,4.08
2022-10-19T01:48:17.117Z,4.00
2022-10-19T01:50:20.277Z,4.00
2022-10-19T01:52:21.373Z,3.98
2022-10-19T01:54:23.408Z,4.00
2022-10-19T01:56:25.789Z,4.02
2022-10-19T01:58:28.324Z,4.01
2022-10-19T02:00:28.144Z,3.98
2022-10-19T02:02:28.747Z,3.94
2022-10-19T02:04:28.986Z,3.98
2022-10-19T02:06:27.479Z,3.94
2022-10-19T02:08:30.227Z,3.86
2022-10-19T02:10:30.493Z,3.84
2022-10-19T02:12:32.217Z,3.86
2022-10-19T02:14:33.953Z,3.78
2022-10-19T02:16:36.260Z,3.76
2022-10-19T02:18:38.700Z,3.79
2022-10-19T02:20:38.757Z,3.75
2022-10-19T02:22:37.439Z,3.86
2022-10-19T02:24:35.649Z,3.82
2022-10-19T02:26:34.432Z,3.85
2022-10-19T02:28:33.229Z,3.88
2022-10-19T02:30:31.634Z,3.87
2022-10-19T02:32:30.078Z,3.75
2022-10-19T02:34:28.654Z,3.70
2022-10-19T02:36:28.314Z,3.71
2022-10-19T02:38:27.224Z,3.71
2022-10-19T02:40:26.294Z,3.70
2022-10-19T02:42:33.721Z,3.71
2022-10-19T02:44:38.248Z,3.68
2022-10-19T02:48:43.953Z,3.63
2022-10-19T02:50:45.390Z,3.65
2022-10-19T02:52:45.097Z,3.71
2022-10-19T02:54:45.681Z,3.70
2022-10-19T02:56:43.697Z,3.73
2022-10-19T02:58:41.864Z,3.78
2022-10-19T03:00:40.276Z,3.76
2022-10-19T03:02:38.726Z,3.74
2022-10-19T03:04:37.271Z,3.71
2022-10-19T03:06:35.736Z,3.70
2022-10-19T03:08:35.498Z,3.74
2022-10-19T03:10:33.782Z,3.63
2022-10-19T03:12:32.078Z,3.56
2022-10-19T03:14:30.434Z,3.62
2022-10-19T03:16:28.705Z,3.55
2022-10-19T03:18:26.891Z,3.52
2022-10-19T03:20:25.315Z,3.50
2022-10-19T03:22:23.672Z,3.49
2022-10-19T03:24:23.521Z,3.56
2022-10-19T03:26:21.848Z,3.51
2022-10-19T03:28:20.033Z,3.49
2022-10-19T03:30:18.575Z,3.41
2022-10-19T03:32:16.871Z,3.37
2022-10-19T03:34:15.020Z,3.44
2022-10-19T03:36:23.292Z,3.48
2022-10-19T03:38:21.491Z,3.44
2022-10-19T03:40:21.107Z,3.40
2022-10-19T03:42:19.374Z,3.37
2022-10-19T03:44:17.625Z,3.32
2022-10-19T03:46:16.090Z,3.21
2022-10-19T03:48:14.351Z,3.14
2022-10-19T03:50:14.318Z,3.11
2022-10-19T03:52:12.446Z,3.15
2022-10-19T03:54:14.904Z,3.22
2022-10-19T03:56:17.385Z,3.20
2022-10-19T03:58:15.579Z,3.23
2022-10-19T04:00:15.067Z,3.17
2022-10-19T04:02:13.205Z,3.11
2022-10-19T04:04:13.168Z,3.05
2022-10-19T04:06:16.963Z,3.05
2022-10-19T04:08:18.008Z,3.05
2022-10-19T04:10:16.375Z,3.03
2022-10-19T04:12:15.980Z,3.05
2022-10-19T04:14:22.972Z,3.06
2022-10-19T04:16:31.941Z,3.13
2022-10-19T04:18:30.105Z,3.11
2022-10-19T04:20:28.461Z,3.13
2022-10-19T04:22:26.731Z,3.20
2022-10-19T04:24:25.431Z,3.20
2022-10-19T04:26:23.598Z,3.21
2022-10-19T04:28:23.171Z,3.10
2022-10-19T04:30:21.628Z,3.00
2022-10-19T04:32:19.915Z,3.01
2022-10-19T04:34:19.026Z,2.97
2022-10-19T04:36:17.478Z,2.98
2022-10-19T04:38:18.247Z,2.94
2022-10-19T04:40:16.721Z,2.95
2022-10-19T04:42:14.923Z,2.98
2022-10-19T04:44:15.653Z,2.98
2022-10-19T04:46:16.078Z,3.03
2022-10-19T04:48:15.148Z,3.04
2022-10-19T04:50:13.721Z,3.13
2022-10-19T04:52:11.823Z,3.27
2022-10-19T04:54:10.123Z,3.35
2022-10-19T04:56:10.469Z,3.37
2022-10-19T04:58:08.894Z,3.40
2022-10-19T05:00:10.118Z,3.43
2022-10-19T05:02:08.437Z,3.43
2022-10-19T05:04:06.666Z,3.65
2022-10-19T05:06:05.432Z,4.03
2022-10-19T05:08:03.685Z,4.41
2022-10-19T05:10:01.930Z,4.70
2022-10-19T05:12:00.236Z,4.64
2022-10-19T05:14:01.308Z,4.58
2022-10-19T05:16:02.827Z,4.50
2022-10-19T05:18:01.225Z,4.42
2022-10-19T05:19:59.491Z,4.41
2022-10-19T05:21:59.990Z,4.42
2022-10-19T05:23:59.037Z,4.33
2022-10-19T05:26:02.171Z,4.36
2022-10-19T05:28:00.395Z,4.36
2022-10-19T05:29:58.812Z,4.51
2022-10-19T05:32:00.337Z,4.73
2022-10-19T05:33:58.830Z,4.85
2022-10-19T05:35:57.173Z,4.98
2022-10-19T05:37:55.996Z,5.09
2022-10-19T05:39:55.790Z,5.16
2022-10-19T05:41:53.883Z,5.15
2022-10-19T05:43:54.842Z,5.21
2022-10-19T05:45:53.001Z,5.58
2022-10-19T05:47:52.643Z,6.78
2022-10-19T05:49:50.934Z,8.25
2022-10-19T05:51:49.326Z,9.21
2022-10-19T05:53:47.981Z,10.30
2022-10-19T05:55:46.093Z,10.88
2022-10-19T05:57:44.432Z,11.37
2022-10-19T05:59:42.762Z,10.62
2022-10-19T06:01:41.095Z,10.69
2022-10-19T06:03:41.013Z,10.67
2022-10-19T06:05:39.793Z,11.14
2022-10-19T06:07:37.950Z,11.81
2022-10-19T06:09:37.308Z,11.53
2022-10-19T06:11:39.098Z,11.15
2022-10-19T06:13:38.041Z,11.67
2022-10-19T06:15:37.182Z,11.08
2022-10-19T06:17:35.815Z,10.55
2022-10-19T06:19:35.951Z,10.11
2022-10-19T06:21:35.440Z,10.15
2022-10-19T06:23:34.178Z,10.56
2022-10-19T06:25:32.800Z,10.28
2022-10-19T06:27:33.199Z,10.24
2022-10-19T06:29:31.904Z,9.82
2022-10-19T06:31:30.788Z,9.96
2022-10-19T06:33:30.061Z,10.11
2022-10-19T06:35:29.562Z,10.08
2022-10-19T06:37:27.820Z,10.51
2022-10-19T06:39:26.060Z,10.81
2022-10-19T06:41:24.505Z,11.23
2022-10-19T06:43:22.639Z,11.81
2022-10-19T06:45:20.986Z,12.57
2022-10-19T06:47:19.171Z,13.21
2022-10-19T06:49:17.503Z,13.20
2022-10-19T06:51:17.260Z,13.13
2022-10-19T06:53:16.126Z,13.17
2022-10-19T06:55:14.326Z,12.54
2022-10-19T06:57:12.735Z,11.65
2022-10-19T06:59:13.507Z,11.52
2022-10-19T07:01:14.222Z,11.43
2022-10-19T07:03:12.598Z,11.11
2022-10-19T07:05:11.284Z,11.68
2022-10-19T07:07:11.183Z,11.56
2022-10-19T07:09:09.503Z,11.63
2022-10-19T07:11:10.692Z,11.41
2022-10-19T07:15:12.117Z,11.95
2022-10-19T07:17:12.923Z,11.70
2022-10-19T07:19:11.873Z,12.00
2022-10-19T07:21:11.749Z,11.85
2022-10-19T07:23:11.412Z,11.72
2022-10-19T07:25:10.401Z,12.30
2022-10-19T07:27:08.779Z,12.66
2022-10-19T07:29:06.979Z,12.27
2022-10-19T07:31:10.136Z,12.31
2022-10-19T07:33:08.190Z,12.53
2022-10-19T07:35:07.655Z,13.06
2022-10-19T07:37:05.911Z,13.28
2022-10-19T07:39:07.919Z,13.11
2022-10-19T07:41:09.251Z,13.16
2022-10-19T07:43:07.477Z,13.53
2022-10-19T07:45:06.541Z,13.73
2022-10-19T07:47:06.300Z,13.57
2022-10-19T07:49:07.086Z,14.20
2022-10-19T07:51:09.680Z,14.48
2022-10-19T07:53:10.636Z,14.87
2022-10-19T07:55:11.369Z,15.01
2022-10-19T07:57:12.075Z,16.11
2022-10-19T07:59:11.235Z,16.09
2022-10-19T08:01:12.623Z,16.24
2022-10-19T08:05:29.282Z,16.54
2022-10-19T08:07:27.539Z,16.71
2022-10-19T08:09:51.585Z,16.47
2022-10-19T08:11:48.140Z,16.78
2022-10-19T08:13:46.597Z,17.57
2022-10-19T08:15:44.734Z,17.10
2022-10-19T08:17:43.283Z,17.38
2022-10-19T08:19:43.495Z,17.21
2022-10-19T08:21:43.714Z,17.22
2022-10-19T08:23:42.414Z,16.33
2022-10-19T08:25:40.628Z,16.42
2022-10-19T08:27:40.314Z,16.59
2022-10-19T08:29:40.015Z,17.33
2022-10-19T08:31:38.170Z,17.34
2022-10-19T08:33:36.518Z,17.88
2022-10-19T08:35:34.735Z,18.52
2022-10-19T08:37:44.363Z,18.63
2022-10-19T08:39:43.534Z,19.63
2022-10-19T08:41:56.626Z,20.29
2022-10-19T08:44:10.213Z,20.67
2022-10-19T08:46:21.906Z,20.20
2022-10-19T08:48:26.185Z,20.86
2022-10-19T08:50:28.809Z,20.41
2022-10-19T08:52:34.432Z,20.00
2022-10-19T08:54:41.901Z,-144.18
2022-10-19T08:56:51.921Z,19.48
2022-10-19T08:59:05.140Z,19.95
2022-10-19T09:01:08.972Z,19.92
2022-10-19T09:03:43.859Z,19.81
2022-10-19T09:05:51.040Z,20.38
2022-10-19T09:07:55.030Z,20.57
2022-10-19T09:09:57.112Z,20.33
2022-10-19T09:12:02.134Z,20.73
2022-10-19T09:14:12.858Z,21.78
2022-10-19T09:16:15.425Z,23.07
2022-10-19T09:18:19.178Z,24.50
2022-10-19T09:20:19.134Z,25.02
2022-10-19T09:22:22.063Z,25.38
2022-10-19T09:24:30.936Z,26.80
2022-10-19T09:26:34.471Z,27.07
2022-10-19T09:28:42.798Z,26.93
2022-10-19T09:30:46.094Z,27.67
2022-10-19T09:32:44.940Z,27.88
2022-10-19T09:34:48.022Z,28.33
2022-10-19T09:36:51.793Z,29.09
2022-10-19T09:38:51.089Z,29.11
2022-10-19T09:40:50.032Z,29.96
2022-10-19T09:42:53.261Z,29.96
2022-10-19T09:44:53.445Z,-144.18
2022-10-19T09:46:59.298Z,-144.19
2022-10-19T09:49:01.567Z,-144.19
2022-10-19T09:51:02.169Z,-144.19
2022-10-19T09:53:02.081Z,-144.19
2022-10-19T09:55:06.048Z,-144.19
2022-10-19T09:57:05.543Z,-144.19
2022-10-19T09:59:03.963Z,-144.19
2022-10-19T10:01:03.940Z,-144.19
2022-10-19T10:03:03.792Z,-144.19
2022-10-19T10:05:14.477Z,29.37
2022-10-19T10:07:20.414Z,29.11
2022-10-19T10:09:20.801Z,29.64
2022-10-19T10:11:26.254Z,29.65
2022-10-19T10:13:28.220Z,29.49
2022-10-19T10:15:28.955Z,28.50
2022-10-19T10:17:31.568Z,28.80
2022-10-19T10:19:32.822Z,29.09
2022-10-19T10:21:34.877Z,29.66
2022-10-19T10:23:36.548Z,29.84
2022-10-19T10:25:36.876Z,29.85
2022-10-19T10:27:37.867Z,30.33
2022-10-19T10:29:39.153Z,29.75
2022-10-19T10:31:37.358Z,30.24
2022-10-19T10:33:46.430Z,30.14
2022-10-19T10:35:53.791Z,29.50
2022-10-19T10:37:53.156Z,29.80
2022-10-19T10:39:53.946Z,29.57
2022-10-19T10:41:52.554Z,27.82
2022-10-19T10:43:57.587Z,26.04
2022-10-19T10:46:03.050Z,24.56
2022-10-19T10:48:15.965Z,23.63
2022-10-19T10:50:21.470Z,22.86
2022-10-19T10:52:21.362Z,22.24
2022-10-19T10:54:21.947Z,21.76
2022-10-19T10:56:28.351Z,21.15
2022-10-19T10:58:36.745Z,20.84
2022-10-19T11:00:38.890Z,20.67
2022-10-19T11:02:43.002Z,20.51
2022-10-19T11:04:48.633Z,20.36
2022-10-19T11:06:56.282Z,20.31
2022-10-19T11:09:05.345Z,20.42
2022-10-19T11:11:15.523Z,20.34
2022-10-19T11:13:19.225Z,20.16
2022-10-19T11:15:26.228Z,20.09
2022-10-19T11:17:28.919Z,20.07
2022-10-19T11:19:30.655Z,19.84
2022-10-19T11:21:33.250Z,19.83
2022-10-19T11:23:45.162Z,19.79
2022-10-19T11:25:56.741Z,19.82
2022-10-19T11:28:09.542Z,19.42
2022-10-19T11:30:14.594Z,19.49
2022-10-19T11:32:21.989Z,19.52
2022-10-19T11:34:39.257Z,19.56
2022-10-19T11:36:47.051Z,19.44
2022-10-19T11:39:01.205Z,19.50
2022-10-19T11:41:17.509Z,19.47
2022-10-19T11:43:27.036Z,19.47
2022-10-19T11:45:43.721Z,19.34
2022-10-19T11:48:00.188Z,19.36
2022-10-19T11:50:11.101Z,19.32
2022-10-19T11:52:16.370Z,19.41
2022-10-19T11:54:29.190Z,19.48
2022-10-19T11:56:57.995Z,19.50
2022-10-19T11:59:03.400Z,19.60
2022-10-19T12:01:10.972Z,19.40
2022-10-19T12:03:43.951Z,19.50
2022-10-19T12:05:52.687Z,19.45
2022-10-19T12:08:07.521Z,19.49
2022-10-19T12:10:19.522Z,19.39
2022-10-19T12:12:30.952Z,19.28
2022-10-19T12:14:33.720Z,19.28
2022-10-19T12:16:39.228Z,19.26
2022-10-19T12:18:42.909Z,19.24
2022-10-19T12:20:48.127Z,19.20
2022-10-19T12:22:47.671Z,19.13
2022-10-19T12:24:46.554Z,19.13
2022-10-19T12:26:47.533Z,19.12
2022-10-19T12:28:51.862Z,19.18
2022-10-19T12:30:50.231Z,19.11
2022-10-19T12:33:03.312Z,19.11
2022-10-19T12:35:10.130Z,19.06
2022-10-19T12:37:13.920Z,19.12
2022-10-19T12:39:18.859Z,19.16
2022-10-19T12:41:26.523Z,19.13
2022-10-19T12:43:34.606Z,19.06
2022-10-19T12:45:37.219Z,18.92
2022-10-19T12:47:35.917Z,19.12
2022-10-19T12:49:52.504Z,19.40
2022-10-19T12:51:52.050Z,19.38
2022-10-19T12:53:50.563Z,19.38
2022-10-19T12:56:00.913Z,19.31
2022-10-19T12:58:05.434Z,19.27
2022-10-19T13:00:07.554Z,19.15
2022-10-19T13:02:24.733Z,19.27
2022-10-19T13:04:27.007Z,19.25
2022-10-19T13:06:35.272Z,19.06
2022-10-19T13:08:38.574Z,19.01
2022-10-19T13:10:37.119Z,18.94
2022-10-19T13:12:46.748Z,19.17
2022-10-19T13:14:48.289Z,19.18
2022-10-19T13:17:09.894Z,19.01
2022-10-19T13:19:22.459Z,18.96
2022-10-19T13:21:46.337Z,18.89
2022-10-19T13:23:45.494Z,18.97
2022-10-19T13:25:44.456Z,18.92
2022-10-19T13:27:43.150Z,18.88
2022-10-19T13:29:44.829Z,18.85
2022-10-19T13:31:43.208Z,18.72
2022-10-19T13:33:53.218Z,18.67
2022-10-19T13:36:08.036Z,18.64
2022-10-19T13:38:26.956Z,18.62
2022-10-19T13:40:25.815Z,18.63
2022-10-19T13:42:27.349Z,18.53
2022-10-19T13:44:35.618Z,18.43
2022-10-19T13:46:45.379Z,18.29
2022-10-19T13:49:15.715Z,18.38
2022-10-19T13:51:23.513Z,18.57
2022-10-19T13:53:33.098Z,18.59
2022-10-19T13:56:13.982Z,18.51
2022-10-19T13:58:47.210Z,18.39
2022-10-19T14:01:00.833Z,18.31
2022-10-19T14:03:26.766Z,18.18
2022-10-19T14:06:04.337Z,18.06
2022-10-19T14:08:16.791Z,18.01
2022-10-19T14:10:18.884Z,17.99
2022-10-19T14:12:23.866Z,17.98
2022-10-19T14:14:24.600Z,18.00
2022-10-19T14:16:23.749Z,18.01
2022-10-19T14:18:27.277Z,17.96
2022-10-19T14:20:29.978Z,17.91
2022-10-19T14:22:31.263Z,17.87
2022-10-19T14:24:34.201Z,17.80
2022-10-19T14:26:32.966Z,17.76
2022-10-19T14:28:37.889Z,17.72
2022-10-19T14:30:37.872Z,17.82
2022-10-19T14:32:36.777Z,17.79
2022-10-19T14:34:35.499Z,17.80
2022-10-19T14:36:38.555Z,17.77
2022-10-19T14:38:39.118Z,17.86
2022-10-19T14:40:42.897Z,17.77
2022-10-19T14:42:44.009Z,17.70
2022-10-19T14:44:44.201Z,17.68
2022-10-19T14:46:49.495Z,17.61
2022-10-19T14:48:49.670Z,17.52
2022-10-19T14:50:50.994Z,17.56
2022-10-19T14:52:52.625Z,17.46
2022-10-19T14:54:55.914Z,17.34
2022-10-19T14:57:00.863Z,17.22
2022-10-19T14:59:03.270Z,17.11
2022-10-19T15:01:01.559Z,17.00
2022-10-19T15:03:01.903Z,16.86
2022-10-19T15:05:01.919Z,16.70
2022-10-19T15:07:02.523Z,16.56
2022-10-19T15:09:03.354Z,16.46
2022-10-19T15:11:01.875Z,16.35
2022-10-19T15:13:09.303Z,16.31
2022-10-19T15:15:14.629Z,16.25
2022-10-19T15:17:24.539Z,16.22
2022-10-19T15:19:29.697Z,16.14
2022-10-19T15:21:30.366Z,16.12
2022-10-19T15:23:41.087Z,16.02
2022-10-19T15:25:40.419Z,15.94
2022-10-19T15:27:45.556Z,15.84
2022-10-19T15:29:56.114Z,15.74
2022-10-19T15:31:56.507Z,15.71
2022-10-19T15:33:57.124Z,15.63
2022-10-19T15:36:06.800Z,15.60
2022-10-19T15:38:10.136Z,15.57
2022-10-19T15:40:13.287Z,15.47
2022-10-19T15:42:36.937Z,15.43
2022-10-19T15:44:43.559Z,15.36
2022-10-19T15:47:23.800Z,15.30
2022-10-19T15:49:55.790Z,15.20
2022-10-19T15:51:54.040Z,15.33
2022-10-19T15:53:53.031Z,15.22
2022-10-19T15:55:51.267Z,15.08
2022-10-19T15:58:00.132Z,14.99
2022-10-19T16:00:00.118Z,14.87
2022-10-19T16:01:59.894Z,14.75
2022-10-19T16:04:04.145Z,14.63
2022-10-19T16:06:05.204Z,14.51
2022-10-19T16:08:03.653Z,14.37
2022-10-19T16:10:01.936Z,14.29
2022-10-19T16:12:03.217Z,14.20
2022-10-19T16:14:01.564Z,14.16
2022-10-19T16:16:11.247Z,14.23
2022-10-19T16:18:12.677Z,14.28
2022-10-19T16:20:14.392Z,14.28
2022-10-19T16:22:17.646Z,14.28
2022-10-19T16:24:15.824Z,14.20
2022-10-19T16:26:16.523Z,14.10
2022-10-19T16:28:14.779Z,14.04
2022-10-19T16:30:14.095Z,14.02
2022-10-19T16:32:12.534Z,14.09
2022-10-19T16:34:12.232Z,14.20
2022-10-19T16:36:11.135Z,14.22
2022-10-19T16:38:09.185Z,14.24
2022-10-19T16:40:11.333Z,14.18
2022-10-19T16:42:09.657Z,14.01
2022-10-19T16:44:07.922Z,13.90
2022-10-19T16:46:06.998Z,13.97
2022-10-19T16:48:07.196Z,14.13
2022-10-19T16:50:11.557Z,14.14
2022-10-19T16:52:14.053Z,14.10
2022-10-19T16:54:13.316Z,14.07
2022-10-19T16:56:13.671Z,13.99
2022-10-19T16:58:12.121Z,13.94
2022-10-19T17:00:11.237Z,13.86
2022-10-19T17:02:10.910Z,13.68
2022-10-19T17:04:09.170Z,13.52
2022-10-19T17:06:09.920Z,13.43
2022-10-19T17:08:09.218Z,13.39
2022-10-19T17:10:08.339Z,13.36
2022-10-19T17:12:10.952Z,13.35
2022-10-19T17:14:11.781Z,13.28
2022-10-19T17:16:14.797Z,13.21
2022-10-19T17:18:13.222Z,13.12
2022-10-19T17:20:12.879Z,13.05
2022-10-19T17:22:12.771Z,12.98
2022-10-19T17:24:20.175Z,12.96
2022-10-19T17:26:19.931Z,12.97
2022-10-19T17:28:18.225Z,12.95
2022-10-19T17:30:16.512Z,12.88
2022-10-19T17:32:17.658Z,12.79
2022-10-19T17:34:16.680Z,12.78
2022-10-19T17:36:19.815Z,12.82
2022-10-19T17:38:19.292Z,12.77
2022-10-19T17:40:17.676Z,12.72
2022-10-19T17:42:16.100Z,12.65
2022-10-19T17:44:14.437Z,12.60
2022-10-19T17:46:24.687Z,12.63
2022-10-19T17:48:22.944Z,12.58
2022-10-19T17:50:23.896Z,12.79
2022-10-19T17:52:24.849Z,12.95
2022-10-19T17:54:36.254Z,12.98
2022-10-19T17:56:45.136Z,13.07
2022-10-19T17:58:44.668Z,13.04
2022-10-19T18:00:42.922Z,12.95
2022-10-19T18:02:41.429Z,12.94
2022-10-19T18:04:40.057Z,12.91
2022-10-19T18:06:38.983Z,12.85
2022-10-19T18:08:41.490Z,12.76
2022-10-19T18:10:41.242Z,12.77
2022-10-19T18:12:39.753Z,12.72
2022-10-19T18:14:38.081Z,12.62
2022-10-19T18:16:38.009Z,12.50
2022-10-19T18:18:38.965Z,12.44
2022-10-19T18:20:40.323Z,12.40
2022-10-19T18:22:38.497Z,12.39
2022-10-19T18:24:37.436Z,12.43
2022-10-19T18:26:37.104Z,12.50
2022-10-19T18:28:36.136Z,12.42
2022-10-19T18:30:36.897Z,12.44
2022-10-19T18:32:36.295Z,12.36
2022-10-19T18:34:35.012Z,12.33
2022-10-19T18:36:34.258Z,12.19
2022-10-19T18:38:32.592Z,12.13
2022-10-19T18:40:31.180Z,12.13
2022-10-19T18:42:30.716Z,12.11
2022-10-19T18:44:32.508Z,12.27
2022-10-19T18:46:33.371Z,12.33
2022-10-19T18:48:32.368Z,12.42
2022-10-19T18:50:31.676Z,12.41
2022-10-19T18:52:30.224Z,12.46
2022-10-19T18:54:29.011Z,12.41
2022-10-19T18:56:29.439Z,12.36
2022-10-19T18:58:31.060Z,12.35
2022-10-19T19:00:29.312Z,12.31
2022-10-19T19:02:35.255Z,12.36
2022-10-19T19:04:40.843Z,12.43
2022-10-19T19:06:40.304Z,12.45
2022-10-19T19:08:39.698Z,12.52
2022-10-19T19:10:38.178Z,12.54
2022-10-19T19:12:36.524Z,12.45
2022-10-19T19:14:36.516Z,12.35
2022-10-19T19:16:36.727Z,12.31
2022-10-19T19:18:35.826Z,12.22
2022-10-19T19:20:34.169Z,12.28
2022-10-19T19:22:32.547Z,12.34
2022-10-19T19:24:32.215Z,12.28
2022-10-19T19:26:33.793Z,12.30
2022-10-19T19:28:31.918Z,12.27
2022-10-19T19:30:31.541Z,12.18
2022-10-19T19:32:30.404Z,12.13
2022-10-19T19:34:28.613Z,12.15
2022-10-19T19:36:27.091Z,12.16
2022-10-19T19:38:25.329Z,12.21
2022-10-19T19:40:23.460Z,12.21
2022-10-19T19:42:25.644Z,12.23
2022-10-19T19:44:29.690Z,12.18
2022-10-19T19:46:29.296Z,12.17
2022-10-19T19:48:27.652Z,12.24
2022-10-19T19:50:26.101Z,12.17
2022-10-19T19:52:24.302Z,12.32
2022-10-19T19:54:23.948Z,12.32
2022-10-19T19:56:22.228Z,12.23
2022-10-19T19:58:20.461Z,12.20
2022-10-19T20:00:20.209Z,12.14
2022-10-19T20:02:21.304Z,12.07
2022-10-19T20:04:19.940Z,12.09
2022-10-19T20:06:22.260Z,12.17
2022-10-19T20:08:23.491Z,12.39
2022-10-19T20:10:21.858Z,12.53
2022-10-19T20:12:20.038Z,12.49
2022-10-19T20:14:18.916Z,12.41
2022-10-19T20:16:20.261Z,12.40
2022-10-19T20:18:22.555Z,12.48
2022-10-19T20:20:21.296Z,12.55
2022-10-19T20:24:18.670Z,12.65
2022-10-19T20:26:17.647Z,12.59
2022-10-19T20:28:16.229Z,12.54
2022-10-19T20:30:14.544Z,12.51
2022-10-19T20:32:12.844Z,12.54
2022-10-19T20:34:14.109Z,12.58
2022-10-19T20:36:14.352Z,12.64
2022-10-19T20:38:12.785Z,12.63
2022-10-19T20:40:12.309Z,12.73
2022-10-19T20:42:10.774Z,12.77
2022-10-19T20:44:09.110Z,12.72
2022-10-19T20:46:08.608Z,12.67
2022-10-19T20:48:07.272Z,12.65
2022-10-19T20:50:08.218Z,12.64
2022-10-19T20:52:06.566Z,12.73
2022-10-19T20:54:07.055Z,12.83
2022-10-19T20:56:06.629Z,12.86
2022-10-19T20:58:04.658Z,12.92
2022-10-19T21:00:02.963Z,13.03
2022-10-19T21:02:01.136Z,13.10
2022-10-19T21:04:03.393Z,13.09
2022-10-19T21:06:05.865Z,13.07
2022-10-19T21:08:04.480Z,13.30
2022-10-19T21:10:02.564Z,13.40
2022-10-19T21:12:01.689Z,13.45
2022-10-19T21:14:01.436Z,13.40
2022-10-19T21:15:59.769Z,13.42
2022-10-19T21:17:57.939Z,13.40
2022-10-19T21:19:57.335Z,13.35
2022-10-19T21:22:01.689Z,13.31
2022-10-19T21:24:00.833Z,13.29
2022-10-19T21:25:58.966Z,13.20
2022-10-19T21:27:57.397Z,13.21
2022-10-19T21:29:55.555Z,13.16
2022-10-19T21:31:53.953Z,13.16
2022-10-19T21:33:52.787Z,13.19
2022-10-19T21:37:55.419Z,13.17
2022-10-19T21:39:53.580Z,13.20
2022-10-19T21:41:51.994Z,13.17
2022-10-19T21:43:50.501Z,13.08
2022-10-19T21:45:48.673Z,13.00
2022-10-19T21:47:47.020Z,12.99
2022-10-19T21:49:45.260Z,13.05
2022-10-19T21:51:46.079Z,13.15
2022-10-19T21:53:46.744Z,13.17
2022-10-19T21:55:45.011Z,13.27
2022-10-19T21:57:43.142Z,13.22
2022-10-19T21:59:41.457Z,13.27
2022-10-19T22:01:41.156Z,13.24
2022-10-19T22:03:39.917Z,13.45
2022-10-19T22:05:38.162Z,13.29
2022-10-19T22:07:36.575Z,13.34
2022-10-19T22:09:36.250Z,13.37
2022-10-19T22:11:35.001Z,13.43
2022-10-19T22:13:33.296Z,13.40
2022-10-19T22:15:31.433Z,13.35
2022-10-19T22:17:29.744Z,13.33
2022-10-19T22:19:27.972Z,13.24
2022-10-19T22:21:28.018Z,13.19
2022-10-19T22:23:26.438Z,13.16
2022-10-19T22:25:26.082Z,13.17
2022-10-19T22:27:24.164Z,13.21
2022-10-19T22:29:22.501Z,13.16
2022-10-19T22:31:20.894Z,13.14
2022-10-19T22:33:19.258Z,13.01
2022-10-19T22:35:17.659Z,12.91
2022-10-19T22:37:15.848Z,12.83
2022-10-19T22:39:15.226Z,12.76
2022-10-19T22:41:14.843Z,12.79
2022-10-19T22:43:12.964Z,12.84
2022-10-19T22:45:11.073Z,12.90
2022-10-19T22:47:09.334Z,12.89
2022-10-19T22:51:10.806Z,12.74
2022-10-19T22:53:08.975Z,12.62
2022-10-19T22:55:07.802Z,12.52
2022-10-19T22:57:07.390Z,12.42
2022-10-19T22:59:07.926Z,12.41
2022-10-19T23:01:11.008Z,12.45
2022-10-19T23:03:09.550Z,12.54
2022-10-19T23:05:08.295Z,12.55
2022-10-19T23:07:06.619Z,12.60
2022-10-19T23:09:05.248Z,12.64
2022-10-19T23:11:03.607Z,12.62
2022-10-19T23:13:03.132Z,12.64
2022-10-19T23:15:01.357Z,12.61
2022-10-19T23:16:59.475Z,12.59
2022-10-19T23:18:57.851Z,12.58
2022-10-19T23:20:56.836Z,12.71
2022-10-19T23:22:55.005Z,12.69
2022-10-19T23:24:53.517Z,12.77
2022-10-19T23:26:53.694Z,12.72
2022-10-19T23:28:53.454Z,12.68
2022-10-19T23:30:51.681Z,12.67
2022-10-19T23:32:49.975Z,12.62
2022-10-19T23:34:48.718Z,12.59
2022-10-19T23:36:47.020Z,12.60
2022-10-19T23:38:48.140Z,12.65
2022-10-19T23:40:46.446Z,12.70
2022-10-19T23:42:45.359Z,12.65
2022-10-19T23:44:45.137Z,12.66
2022-10-19T23:46:43.346Z,12.61
2022-10-19T23:48:42.290Z,12.49
2022-10-19T23:50:40.505Z,12.44
2022-10-19T23:52:38.877Z,12.41
2022-10-19T23:54:37.332Z,12.46
2022-10-19T23:56:35.655Z,12.57
2022-10-19T23:58:34.651Z,12.63
